Time;durP1;ratioP1;P1;durP2;ratioP2;P2;SDS_P1;SDS_P2;PMS_P1;PMS_P2;Temp;Humidity;BMP_temperature;BMP_pressure;BME280_temperature;BME280_humidity;BME280_pressure;Samples;Min_cycle;Max_cycle;Signal;HPM_P1;HPM_P2
2022/01/02 00:01:47;;;;;;;13.00;8.70;;;;;;;11.08;91.68;99898.97;4942335;29;20193;-84
2022/01/02 00:04:19;;;;;;;11.33;7.33;;;;;;;11.68;91.22;99989.81;4941281;29;20166;-85
2022/01/02 00:06:50;;;;;;;11.43;7.53;;;;;;;10.99;91.58;99880.75;4940573;29;20253;-85
2022/01/02 00:09:34;;;;;;;11.93;7.47;;;;;;;11.45;90.95;99959.06;4939290;29;20701;-84
2022/01/02 00:12:08;;;;;;;12.17;8.47;;;;;;;11.63;91.34;99990.38;4935556;29;20244;-84
2022/01/02 00:14:36;;;;;;;11.70;7.50;;;;;;;10.49;91.77;99827.59;4923164;29;20249;-85
2022/01/02 00:17:03;;;;;;;12.23;8.00;;;;;;;11.08;91.31;99908.22;4923964;29;20220;-84
2022/01/02 00:19:31;;;;;;;12.13;8.07;;;;;;;8.55;91.62;99505.69;4932324;29;20236;-85
2022/01/02 00:22:02;;;;;;;11.67;7.70;;;;;;;11.39;92.21;100007.81;4945898;29;20187;-86
2022/01/02 00:24:30;;;;;;;11.60;6.80;;;;;;;11.38;91.99;100007.72;4956071;29;20255;-87
2022/01/02 00:26:57;;;;;;;10.60;5.87;;;;;;;11.22;92.33;100006.94;4960063;29;20185;-85
2022/01/02 00:29:23;;;;;;;14.30;8.87;;;;;;;11.27;91.37;99997.91;4960105;28;20185;-84
2022/01/02 00:31:50;;;;;;;13.63;8.40;;;;;;;11.41;91.69;100021.41;4935577;29;20189;-85
2022/01/02 00:34:18;;;;;;;11.97;8.20;;;;;;;8.21;91.73;99513.06;4926671;29;20196;-84
2022/01/02 00:36:44;;;;;;;21.40;12.93;;;;;;;10.20;92.32;99842.94;4943461;29;20309;-84
2022/01/02 00:39:09;;;;;;;22.87;12.73;;;;;;;10.49;91.15;99882.44;4943444;29;20572;-84
2022/01/02 00:41:54;;;;;;;34.03;20.03;;;;;;;11.53;90.64;100031.31;4943187;29;20237;-85
2022/01/02 00:44:32;;;;;;;16.63;9.47;;;;;;;11.50;90.11;100041.28;4946461;29;20246;-86
2022/01/02 00:47:15;;;;;;;12.33;8.53;;;;;;;10.87;90.03;99927.41;4946439;29;20254;-84
2022/01/02 00:49:45;;;;;;;15.70;9.50;;;;;;;10.96;90.08;99938.88;4943346;29;20247;-85
2022/01/02 00:52:17;;;;;;;11.77;7.90;;;;;;;8.57;90.74;99584.00;4926194;29;20177;-85
2022/01/02 00:54:45;;;;;;;13.37;8.57;;;;;;;10.83;90.07;99936.50;4945163;29;20200;-84
2022/01/02 00:57:16;;;;;;;11.63;6.87;;;;;;;11.54;89.46;100033.91;4928654;29;20218;-84
2022/01/02 01:00:01;;;;;;;9.47;5.87;;;;;;;11.45;88.92;100007.25;4944181;29;20212;-84
2022/01/02 01:02:47;;;;;;;10.60;7.33;;;;;;;11.56;88.82;100036.53;4944690;29;20203;-86
2022/01/02 01:05:19;;;;;;;9.63;6.90;;;;;;;10.14;88.54;99788.63;4941931;29;20228;-83
2022/01/02 01:07:48;;;;;;;8.60;5.40;;;;;;;11.46;89.18;100040.25;4942983;29;20173;-84
2022/01/02 01:10:13;;;;;;;10.33;7.00;;;;;;;10.56;89.23;99884.47;4941616;29;20184;-85
2022/01/02 01:12:39;;;;;;;10.83;6.80;;;;;;;10.85;89.25;99945.06;4941562;29;20165;-84
2022/01/02 01:15:06;;;;;;;8.17;5.50;;;;;;;10.76;89.37;99931.94;4943257;29;20193;-85
2022/01/02 01:17:32;;;;;;;9.83;6.20;;;;;;;8.92;88.95;99656.59;4944265;29;20173;-84
2022/01/02 01:19:58;;;;;;;11.30;6.70;;;;;;;11.43;89.41;100041.75;4942478;29;20177;-84
2022/01/02 01:22:24;;;;;;;9.97;6.40;;;;;;;8.87;88.96;99599.13;4925510;29;20180;-84
2022/01/02 01:24:49;;;;;;;9.37;5.90;;;;;;;9.69;88.77;99752.56;4943830;29;20256;-84
2022/01/02 01:27:15;;;;;;;10.40;6.73;;;;;;;9.12;89.58;99684.63;4929489;29;20192;-83
2022/01/02 01:29:40;;;;;;;8.33;5.53;;;;;;;10.52;90.16;99936.59;4942366;29;20192;-83
2022/01/02 01:32:08;;;;;;;10.97;6.70;;;;;;;11.17;90.37;100050.59;4943181;29;20172;-84
2022/01/02 01:34:34;;;;;;;9.13;6.23;;;;;;;11.22;90.04;100049.16;4942862;29;20500;-84
2022/01/02 01:37:00;;;;;;;10.87;7.10;;;;;;;9.65;89.70;99773.41;4943985;29;20177;-84
2022/01/02 01:39:25;;;;;;;9.77;5.70;;;;;;;10.09;90.70;99865.13;4925678;29;20705;-83
2022/01/02 01:41:54;;;;;;;18.00;10.30;;;;;;;11.21;90.06;100037.28;4940239;29;20589;-84
2022/01/02 01:46:47;;;;;;;11.80;8.03;;;;;;;11.23;90.11;100035.72;4943190;29;20213;-85
2022/01/02 01:49:22;;;;;;;9.10;5.73;;;;;;;11.24;90.18;100037.44;4942540;29;20248;-84
2022/01/02 01:51:48;;;;;;;9.73;6.50;;;;;;;10.34;89.88;99876.56;4942425;29;20587;-83
2022/01/02 01:54:13;;;;;;;11.63;7.33;;;;;;;11.37;89.77;100044.00;4947034;29;20200;-84
2022/01/02 01:56:40;;;;;;;9.33;6.33;;;;;;;9.73;89.45;99746.88;4943529;29;20185;-84
2022/01/02 01:59:07;;;;;;;8.50;5.50;;;;;;;11.43;89.14;100036.69;4942379;29;20161;-85
2022/01/02 02:01:33;;;;;;;12.73;7.70;;;;;;;11.42;89.47;100042.56;4942721;29;20244;-84
2022/01/02 02:03:59;;;;;;;10.10;6.80;;;;;;;11.25;90.09;100042.59;4940387;29;20217;-85
2022/01/02 02:06:26;;;;;;;11.07;7.60;;;;;;;9.86;89.64;99819.19;4942869;29;20170;-85
2022/01/02 02:08:54;;;;;;;10.83;5.30;;;;;;;7.99;90.18;99499.22;4942149;29;20189;-84
2022/01/02 02:11:20;;;;;;;9.03;6.83;;;;;;;9.50;90.53;99747.31;4926060;29;20170;-84
2022/01/02 02:13:47;;;;;;;8.87;5.60;;;;;;;10.72;89.82;99931.69;4943069;29;20189;-85
2022/01/02 02:16:13;;;;;;;10.40;7.07;;;;;;;8.72;89.71;99623.56;4943974;29;20217;-84
2022/01/02 02:18:38;;;;;;;22.23;13.73;;;;;;;10.08;89.72;99848.19;4943028;29;20173;-85
2022/01/02 02:21:04;;;;;;;16.67;8.80;;;;;;;10.30;89.61;99880.56;4925614;29;20573;-84
2022/01/02 02:23:29;;;;;;;12.30;7.97;;;;;;;11.40;89.42;100028.97;4944130;29;20566;-84
2022/01/02 02:25:55;;;;;;;10.97;7.50;;;;;;;10.82;89.70;99955.06;4943624;29;20264;-84
2022/01/02 02:28:25;;;;;;;7.90;5.47;;;;;;;10.59;89.99;99918.41;4940844;29;20173;-84
2022/01/02 02:30:53;;;;;;;10.87;7.57;;;;;;;9.98;89.63;99800.47;4941972;29;20153;-84
2022/01/02 02:33:20;;;;;;;11.10;6.83;;;;;;;11.27;90.20;100028.31;4940867;29;20201;-85
2022/01/02 02:35:48;;;;;;;12.30;7.20;;;;;;;10.68;90.06;99945.88;4942053;29;20240;-85
2022/01/02 02:38:16;;;;;;;12.67;7.37;;;;;;;10.57;90.30;99921.66;4941521;29;20185;-83
2022/01/02 02:40:41;;;;;;;12.37;6.77;;;;;;;9.48;90.41;99744.69;4940737;29;20252;-83
2022/01/02 02:51:44;;;;;;;8.83;5.90;;;;;;;10.58;91.18;99946.16;4944608;29;20224;-84
2022/01/02 02:54:18;;;;;;;9.90;5.33;;;;;;;11.11;90.69;100035.06;4940510;29;20181;-84
2022/01/02 02:56:53;;;;;;;9.67;6.70;;;;;;;10.64;90.85;99960.03;4940044;29;20209;-84
2022/01/02 02:59:22;;;;;;;16.27;9.33;;;;;;;10.48;90.61;99919.53;4940953;29;20196;-83
2022/01/02 03:01:47;;;;;;;11.53;7.67;;;;;;;10.37;91.25;99922.28;4941582;29;20248;-84
2022/01/02 03:04:13;;;;;;;12.40;7.97;;;;;;;10.94;91.42;100019.00;4923100;29;20189;-85
2022/01/02 03:06:38;;;;;;;18.83;10.80;;;;;;;11.04;91.30;100044.00;4941228;29;20172;-84
2022/01/02 03:09:10;;;;;;;12.90;7.13;;;;;;;10.55;91.13;99938.41;4941543;29;20170;-83
2022/01/02 03:11:40;;;;;;;12.63;7.83;;;;;;;11.06;90.92;100032.31;4940795;29;20251;-84
2022/01/02 03:14:11;;;;;;;13.27;8.63;;;;;;;11.13;90.45;100030.94;4924490;29;20249;-84
2022/01/02 03:16:37;;;;;;;17.67;12.20;;;;;;;11.03;91.14;100042.28;4941210;29;20200;-83
2022/01/02 03:19:04;;;;;;;12.13;7.27;;;;;;;11.03;90.92;100042.28;4944814;29;20189;-84
2022/01/02 03:21:29;;;;;;;12.33;7.67;;;;;;;10.45;91.09;99929.47;4941123;29;20212;-84
2022/01/02 03:23:56;;;;;;;11.40;6.80;;;;;;;11.12;90.73;100036.81;4941906;29;20196;-85
2022/01/02 03:26:22;;;;;;;11.63;7.67;;;;;;;11.16;90.52;100044.66;4926624;29;20235;-83
2022/01/02 03:28:47;;;;;;;9.93;6.80;;;;;;;8.22;90.20;99527.44;4927151;29;20212;-85
2022/01/02 03:31:13;;;;;;;10.03;6.83;;;;;;;10.65;90.49;99950.78;4926540;29;20181;-84
2022/01/02 03:33:39;;;;;;;13.50;7.53;;;;;;;11.20;90.24;100066.84;4941696;29;20205;-83
2022/01/02 03:36:04;;;;;;;12.47;6.20;;;;;;;11.17;90.75;100053.13;4941616;29;20193;-83
2022/01/02 03:38:30;;;;;;;10.13;6.10;;;;;;;11.14;90.68;100051.31;4932907;29;20212;-83
2022/01/02 03:40:56;;;;;;;12.47;7.50;;;;;;;11.09;91.69;100067.94;4927472;29;20228;-84
2022/01/02 03:43:21;;;;;;;10.07;6.10;;;;;;;11.18;91.20;100068.41;4939736;29;20165;-85
2022/01/02 03:45:47;;;;;;;12.47;7.90;;;;;;;11.16;91.61;100064.94;4939282;29;20169;-85
2022/01/02 03:48:13;;;;;;;12.90;7.83;;;;;;;10.72;92.16;99983.22;4939348;29;20619;-84
2022/01/02 03:50:38;;;;;;;12.27;8.73;;;;;;;10.60;91.31;99950.50;4921771;29;20302;-84
2022/01/02 03:53:05;;;;;;;11.83;7.73;;;;;;;8.79;90.88;99640.75;4940106;29;20560;-84
2022/01/02 03:55:31;;;;;;;12.53;8.20;;;;;;;11.25;91.38;100073.00;4941552;29;20189;-84
2022/01/02 03:57:57;;;;;;;13.10;7.63;;;;;;;9.52;90.88;99745.75;4942263;29;20225;-84
2022/01/02 04:00:22;;;;;;;11.73;8.27;;;;;;;11.32;91.07;100055.59;4939395;29;20212;-85
2022/01/02 04:02:48;;;;;;;10.73;6.97;;;;;;;11.25;91.12;100065.41;4940650;29;20177;-85
2022/01/02 04:05:15;;;;;;;11.40;6.23;;;;;;;9.57;90.58;99767.06;4944268;29;20181;-84
2022/01/02 04:07:42;;;;;;;10.33;6.67;;;;;;;9.58;91.61;99811.78;4943865;29;20627;-84
2022/01/02 04:10:14;;;;;;;12.03;7.73;;;;;;;9.57;91.44;99784.75;4943905;29;20606;-84
2022/01/02 04:12:40;;;;;;;10.33;6.43;;;;;;;11.20;91.75;100065.97;4944977;29;20169;-84
2022/01/02 04:15:08;;;;;;;13.63;8.53;;;;;;;8.21;91.89;99595.44;4947112;29;20193;-84
2022/01/02 04:17:35;;;;;;;13.00;8.57;;;;;;;10.80;92.13;99996.25;4944752;29;20192;-84
2022/01/02 04:20:02;;;;;;;14.00;8.80;;;;;;;8.21;91.41;99552.56;4942168;29;20585;-84
2022/01/02 04:22:27;;;;;;;13.20;7.87;;;;;;;8.71;92.09;99671.41;4944240;29;20161;-85
2022/01/02 04:24:53;;;;;;;17.77;8.03;;;;;;;8.87;92.25;99707.69;4926886;29;20169;-84
2022/01/02 04:27:20;;;;;;;14.50;8.67;;;;;;;11.14;92.71;100089.31;4943646;29;20170;-84
2022/01/02 04:29:46;;;;;;;13.87;8.60;;;;;;;11.17;93.20;100094.56;4943099;29;20650;-86
2022/01/02 04:32:12;;;;;;;13.90;8.80;;;;;;;9.46;92.62;99818.69;4943259;29;20593;-84
2022/01/02 04:34:37;;;;;;;13.60;8.47;;;;;;;9.15;92.58;99750.47;4942651;29;20212;-85
2022/01/02 04:37:04;;;;;;;12.97;8.47;;;;;;;11.19;93.08;100092.97;4926118;29;20646;-85
2022/01/02 04:39:31;;;;;;;14.30;8.97;;;;;;;9.94;93.26;99879.47;4942118;29;20626;-84
2022/01/02 04:41:56;;;;;;;17.37;9.73;;;;;;;9.97;92.82;99886.38;4942290;29;20217;-84
2022/01/02 04:44:22;;;;;;;14.63;9.57;;;;;;;9.38;93.41;99797.19;4942524;29;20196;-84
2022/01/02 04:46:47;;;;;;;13.20;8.50;;;;;;;10.87;93.46;100049.88;4943520;29;20169;-84
2022/01/02 04:49:14;;;;;;;22.80;13.07;;;;;;;11.25;92.85;100100.00;4944419;29;20170;-84
2022/01/02 04:51:40;;;;;;;14.60;9.57;;;;;;;11.23;92.82;100109.22;4926934;29;20530;-84
2022/01/02 04:54:05;;;;;;;15.93;10.40;;;;;;;11.19;93.11;100125.91;4944029;29;20225;-85
2022/01/02 04:56:31;;;;;;;14.10;9.63;;;;;;;9.10;93.41;99764.50;4943266;29;20193;-84
2022/01/02 04:58:56;;;;;;;14.47;9.60;;;;;;;10.43;93.54;99996.00;4926372;29;20200;-84
2022/01/02 05:01:22;;;;;;;14.73;9.60;;;;;;;10.46;93.69;100008.81;4943514;29;20170;-84
2022/01/02 05:03:47;;;;;;;14.63;9.83;;;;;;;10.81;95.22;100079.94;4944506;29;20570;-85
2022/01/02 05:06:13;;;;;;;16.13;10.00;;;;;;;9.75;94.34;99909.59;4942413;29;20695;-85
2022/01/02 05:08:45;;;;;;;15.70;10.17;;;;;;;9.58;94.55;99900.25;4943612;29;20189;-84
2022/01/02 05:11:16;;;;;;;16.97;9.73;;;;;;;10.87;95.43;100103.06;4947984;29;20170;-84
2022/01/02 05:13:43;;;;;;;16.23;9.40;;;;;;;10.92;95.59;100109.25;4945136;29;20171;-85
2022/01/02 05:16:08;;;;;;;18.80;9.87;;;;;;;10.83;95.56;100115.47;4942641;29;20217;-85
2022/01/02 05:18:34;;;;;;;15.73;10.03;;;;;;;9.96;95.17;99952.91;4943326;29;20606;-84
2022/01/02 05:20:59;;;;;;;14.30;9.27;;;;;;;8.52;95.15;99701.44;4942874;29;20188;-84
2022/01/02 05:23:25;;;;;;;18.37;9.87;;;;;;;10.95;94.98;100137.28;4943131;29;20177;-85
2022/01/02 05:25:50;;;;;;;17.50;7.73;;;;;;;10.70;94.79;100091.16;4944577;29;20172;-83
2022/01/02 05:28:16;;;;;;;17.83;10.97;;;;;;;10.13;95.28;99957.28;4943968;29;20165;-84
2022/01/02 05:30:42;;;;;;;14.10;8.47;;;;;;;10.87;95.55;100105.59;4942848;29;20165;-85
2022/01/02 05:33:08;;;;;;;14.63;9.20;;;;;;;10.92;95.67;100103.31;4943983;29;20515;-85
2022/01/02 05:35:34;;;;;;;15.07;10.27;;;;;;;8.18;94.95;99623.00;4944075;29;20193;-85
2022/01/02 05:38:01;;;;;;;16.17;9.37;;;;;;;10.25;95.50;99992.47;4947210;29;20249;-85
2022/01/02 05:40:32;;;;;;;14.87;9.30;;;;;;;9.26;95.66;99830.22;4945969;29;20229;-85
2022/01/02 05:43:03;;;;;;;16.33;10.63;;;;;;;9.70;94.80;99874.75;4945106;29;20670;-84
2022/01/02 05:45:28;;;;;;;13.07;8.70;;;;;;;10.67;95.05;100073.25;4941558;29;20200;-84
2022/01/02 05:47:54;;;;;;;14.30;9.73;;;;;;;10.37;94.45;100003.25;4944217;29;20162;-84
2022/01/02 05:50:19;;;;;;;14.47;9.63;;;;;;;10.36;94.10;99996.44;4941919;29;20185;-84
2022/01/02 05:52:45;;;;;;;14.67;9.37;;;;;;;10.71;93.25;100034.66;4943467;29;20177;-85
2022/01/02 05:55:10;;;;;;;14.40;9.20;;;;;;;10.26;93.38;99969.78;4946145;29;20199;-84
2022/01/02 05:57:36;;;;;;;15.73;10.20;;;;;;;9.79;93.47;99903.94;4949536;29;20638;-84
2022/01/02 06:00:03;;;;;;;19.90;11.67;;;;;;;11.16;93.34;100119.78;4946019;29;20162;-84
2022/01/02 06:02:30;;;;;;;14.67;9.73;;;;;;;9.54;93.00;99865.47;4947336;29;20259;-85
2022/01/02 06:04:56;;;;;;;19.97;12.60;;;;;;;10.52;93.63;100026.88;4949113;29;20161;-84
2022/01/02 06:07:21;;;;;;;31.90;16.80;;;;;;;9.37;93.47;99840.91;4945933;29;20161;-85
2022/01/02 06:09:47;;;;;;;36.40;19.03;;;;;;;8.39;93.21;99688.94;4940944;29;20237;-85
2022/01/02 06:12:13;;;;;;;20.77;12.10;;;;;;;9.97;92.59;99944.56;4939064;29;20169;-84
2022/01/02 06:14:39;;;;;;;23.03;11.80;;;;;;;9.87;92.18;99933.03;4923840;29;20630;-84
2022/01/02 06:17:04;;;;;;;31.80;18.50;;;;;;;11.10;92.21;100152.41;4941287;29;20297;-84
2022/01/02 06:19:30;;;;;;;27.43;16.57;;;;;;;9.27;91.13;99808.38;4939784;29;20196;-85
2022/01/02 06:21:55;;;;;;;41.97;22.23;;;;;;;9.47;90.97;99833.97;4940400;29;20166;-85
2022/01/02 06:24:20;;;;;;;52.90;26.60;;;;;;;11.22;90.38;100136.22;4942110;29;20641;-84
2022/01/02 06:26:46;;;;;;;38.80;19.80;;;;;;;9.43;90.33;99813.47;4942139;29;20251;-84
2022/01/02 06:29:13;;;;;;;30.27;15.03;;;;;;;11.31;90.27;100145.09;4941119;29;20189;-85
2022/01/02 06:31:38;;;;;;;51.97;20.67;;;;;;;11.41;90.41;100143.09;4924754;29;20200;-85
2022/01/02 06:34:04;;;;;;;179.63;40.60;;;;;;;11.29;88.32;100073.16;4950952;29;20173;-84
2022/01/02 06:36:30;;;;;;;111.87;30.03;;;;;;;11.99;86.99;100149.50;4945497;29;20216;-85
2022/01/02 06:38:55;;;;;;;14.77;8.60;;;;;;;10.17;85.04;99809.03;4945176;29;20567;-84
2022/01/02 06:41:22;;;;;;;13.10;8.83;;;;;;;11.44;85.84;100105.25;4940809;29;20622;-85
2022/01/02 06:43:52;;;;;;;14.90;10.10;;;;;;;11.08;86.98;100058.59;4942014;29;20170;-85
2022/01/02 06:46:18;;;;;;;14.70;9.20;;;;;;;11.65;87.41;100169.72;4940888;29;20180;-84
2022/01/02 06:48:43;;;;;;;15.13;9.17;;;;;;;8.96;86.18;99698.88;4924066;29;20181;-84
2022/01/02 06:51:09;;;;;;;13.00;8.70;;;;;;;10.19;85.14;99866.50;4939241;29;20276;-85
2022/01/02 06:53:34;;;;;;;22.57;11.20;;;;;;;10.85;84.17;99954.34;4942458;29;20228;-84
2022/01/02 06:55:59;;;;;;;16.30;9.13;;;;;;;10.35;84.01;99863.13;4940191;29;20241;-86
2022/01/02 06:58:25;;;;;;;15.07;9.67;;;;;;;11.11;84.29;100013.13;4941888;29;20169;-85
2022/01/02 07:00:51;;;;;;;14.63;9.27;;;;;;;11.51;84.23;100073.47;4926283;29;20173;-85
2022/01/02 07:03:16;;;;;;;13.17;9.20;;;;;;;11.87;84.74;100181.03;4944965;29;20184;-84
2022/01/02 07:05:41;;;;;;;10.87;6.77;;;;;;;11.80;83.69;100101.19;4943431;29;20172;-86
2022/01/02 07:08:07;;;;;;;11.47;8.30;;;;;;;13.75;76.86;100165.44;4943124;29;20200;-86
2022/01/02 07:10:32;;;;;;;11.70;7.67;;;;;;;12.37;79.22;100068.47;4945769;29;20165;-84
2022/01/02 07:12:58;;;;;;;15.97;10.33;;;;;;;12.65;79.30;100064.66;4946543;29;20180;-84
2022/01/02 07:15:23;;;;;;;10.93;8.13;;;;;;;13.51;70.80;99843.03;4948101;29;20199;-85
2022/01/02 07:17:50;;;;;;;9.67;7.33;;;;;;;15.63;68.55;100059.84;4931579;29;20549;-84
2022/01/02 07:20:15;;;;;;;9.27;6.70;;;;;;;14.71;67.52;99896.78;4946481;29;20212;-84
2022/01/02 07:22:42;;;;;;;9.90;6.93;;;;;;;15.68;66.91;100042.16;4940320;29;20177;-87
2022/01/02 07:25:08;;;;;;;10.63;7.00;;;;;;;14.75;68.25;99977.63;4935607;29;20162;-86
2022/01/02 07:27:35;;;;;;;10.87;7.40;;;;;;;11.63;74.00;99770.63;4935293;29;20259;-85
2022/01/02 07:30:01;;;;;;;10.43;6.87;;;;;;;13.66;70.46;99874.97;4939987;29;20185;-88
2022/01/02 07:32:27;;;;;;;10.17;6.63;;;;;;;14.88;72.51;100182.91;4927506;29;20643;-86
2022/01/02 07:34:52;;;;;;;11.63;6.97;;;;;;;12.73;74.32;99919.41;4943459;29;20710;-86
2022/01/02 07:37:19;;;;;;;11.20;7.63;;;;;;;13.03;73.99;99913.09;4943497;29;20189;-88
2022/01/02 07:39:45;;;;;;;10.00;7.13;;;;;;;12.89;74.78;99966.66;4944249;29;20662;-86
2022/01/02 07:42:10;;;;;;;11.20;7.75;;;;;;;12.52;75.28;99913.41;4905846;29;1178044;-86
2022/01/02 07:44:37;;;;;;;10.30;6.43;;;;;;;12.61;75.32;99959.50;4942371;29;20197;-87
2022/01/02 07:47:04;;;;;;;10.33;6.93;;;;;;;11.99;74.92;99839.94;4941871;29;20245;-86
2022/01/02 07:49:30;;;;;;;11.80;8.00;;;;;;;13.27;74.77;100032.78;4944161;29;20169;-86
2022/01/02 07:51:55;;;;;;;12.47;8.03;;;;;;;12.66;74.30;99879.28;4943121;29;20168;-86
2022/01/02 07:54:21;;;;;;;24.03;12.50;;;;;;;13.24;74.80;100014.00;4938460;29;20185;-87
2022/01/02 07:56:46;;;;;;;14.47;9.37;;;;;;;12.85;74.78;99929.25;4923680;29;20644;-87
2022/01/02 07:59:12;;;;;;;23.37;15.37;;;;;;;12.31;74.87;99867.59;4941749;29;20749;-85
2022/01/02 08:01:39;;;;;;;13.63;8.27;;;;;;;14.49;74.42;100196.63;4935332;29;20181;-88
2022/01/02 08:04:04;;;;;;;9.77;6.77;;;;;;;13.79;75.22;100085.88;4924335;29;20177;-85
2022/01/02 08:06:30;;;;;;;11.53;8.03;;;;;;;14.50;75.11;100203.47;4943840;29;20260;-85
2022/01/02 08:08:55;;;;;;;10.50;7.47;;;;;;;12.39;74.90;99855.25;4928096;29;20204;-86
2022/01/02 08:11:28;;;;;;;11.73;8.17;;;;;;;11.09;75.18;99618.59;4921698;29;20185;-87
2022/01/02 08:13:53;;;;;;;18.83;11.13;;;;;;;12.80;74.09;99824.84;4936448;29;20165;-86
2022/01/02 08:16:19;;;;;;;14.83;9.60;;;;;;;14.92;74.62;100204.28;4935862;29;20201;-84
2022/01/02 08:18:44;;;;;;;12.17;7.37;;;;;;;13.27;74.83;99935.28;4910216;29;20181;-86
2022/01/02 08:21:10;;;;;;;11.93;7.77;;;;;;;12.47;74.85;99814.97;4945966;29;20314;-85
2022/01/02 08:23:35;;;;;;;12.00;7.73;;;;;;;12.09;75.06;99773.56;4940374;29;20241;-84
2022/01/02 08:26:02;;;;;;;11.80;8.60;;;;;;;14.73;75.59;100203.56;4920546;29;20173;-82
2022/01/02 08:28:27;;;;;;;11.60;8.40;;;;;;;14.49;74.94;100121.06;4936963;29;20643;-85
2022/01/02 08:30:53;;;;;;;12.33;7.60;;;;;;;14.30;74.30;100082.88;4944162;29;20158;-85
2022/01/02 08:33:18;;;;;;;11.50;8.20;;;;;;;14.11;74.40;100055.81;4939422;29;20252;-85
2022/01/02 08:35:45;;;;;;;11.87;7.73;;;;;;;14.96;73.19;100162.81;4928708;29;20205;-86
2022/01/02 08:38:11;;;;;;;12.97;9.03;;;;;;;15.40;73.15;100224.03;4945584;29;20249;-85
2022/01/02 08:40:39;;;;;;;11.80;8.33;;;;;;;14.70;72.64;100111.69;4927294;29;20229;-86
2022/01/02 08:43:06;;;;;;;11.53;7.47;;;;;;;14.19;72.70;100015.38;4946771;29;20215;-85
2022/01/02 08:45:31;;;;;;;13.17;8.53;;;;;;;14.96;73.97;100176.44;4947656;29;20193;-85
2022/01/02 08:47:57;;;;;;;12.77;8.80;;;;;;;13.77;73.20;99971.28;4945555;29;20173;-85
2022/01/02 08:50:22;;;;;;;11.67;8.50;;;;;;;14.22;72.90;99986.63;4930050;29;20173;-85
2022/01/02 08:52:47;;;;;;;11.30;8.30;;;;;;;14.22;73.68;100032.44;4951638;29;20625;-86
2022/01/02 08:55:14;;;;;;;12.67;8.70;;;;;;;15.77;72.11;100232.25;4936019;29;20197;-85
2022/01/02 08:57:39;;;;;;;11.70;8.47;;;;;;;14.44;71.40;99944.22;4947878;29;20177;-86
2022/01/02 09:00:08;;;;;;;9.33;6.63;;;;;;;15.26;71.65;100146.09;4949453;29;20157;-86
2022/01/02 09:02:35;;;;;;;12.10;8.50;;;;;;;15.42;72.52;100173.03;4950681;29;20551;-86
2022/01/02 09:05:03;;;;;;;9.40;6.77;;;;;;;14.76;72.18;100062.63;4948389;29;20249;-87
2022/01/02 09:07:29;;;;;;;13.77;9.63;;;;;;;13.24;72.33;99780.06;4936179;29;20181;-87
2022/01/02 09:09:54;;;;;;;12.97;8.57;;;;;;;12.59;72.16;99665.63;4936187;29;20705;-87
2022/01/02 09:12:24;;;;;;;16.97;10.93;;;;;;;12.77;72.78;99712.09;4951938;29;20196;-85
2022/01/02 09:14:49;;;;;;;13.63;9.10;;;;;;;12.11;72.90;99591.78;4949885;29;20177;-86
2022/01/02 09:17:15;;;;;;;14.77;9.87;;;;;;;13.16;71.33;99675.53;4954856;29;20157;-84
2022/01/02 09:19:40;;;;;;;11.37;7.23;;;;;;;13.51;71.31;99789.59;4954223;29;20169;-86
2022/01/02 09:22:06;;;;;;;9.77;7.20;;;;;;;15.00;73.10;100088.16;4946184;29;20308;-85
2022/01/02 09:24:31;;;;;;;11.27;7.60;;;;;;;12.79;71.49;99657.13;4953223;29;20224;-85
2022/01/02 09:26:57;;;;;;;13.57;7.70;;;;;;;13.74;72.11;99825.22;4951507;29;20191;-85
2022/01/02 09:29:23;;;;;;;10.93;7.73;;;;;;;16.30;71.20;100182.16;4946856;29;20173;-87
2022/01/02 09:31:50;;;;;;;14.00;9.60;;;;;;;15.47;69.53;99968.28;4943050;29;20169;-86
2022/01/02 09:34:15;;;;;;;10.07;6.70;;;;;;;12.79;69.80;99637.66;4942332;29;20176;-87
2022/01/02 09:36:40;;;;;;;11.60;7.67;;;;;;;14.06;70.33;99832.41;4944141;29;20186;-86
2022/01/02 09:39:06;;;;;;;10.23;6.80;;;;;;;15.30;69.65;100033.13;4944885;29;20170;-87
2022/01/02 09:41:32;;;;;;;9.87;6.80;;;;;;;12.46;69.61;99574.53;4924853;29;20225;-89
2022/01/02 09:43:58;;;;;;;8.57;6.10;;;;;;;13.35;69.93;99698.28;4924637;29;20181;-88
2022/01/02 09:46:26;;;;;;;10.50;6.93;;;;;;;14.10;68.86;99753.63;4923018;29;20268;-87
2022/01/02 09:48:53;;;;;;;10.20;6.77;;;;;;;15.52;68.65;99991.41;4925192;29;20172;-88
2022/01/02 09:51:22;;;;;;;8.83;6.33;;;;;;;15.97;68.50;100077.16;4939347;29;20643;-88
2022/01/02 09:53:48;;;;;;;9.20;6.10;;;;;;;16.70;68.44;100161.34;4939024;29;20181;-88
2022/01/02 09:56:15;;;;;;;9.57;5.83;;;;;;;16.42;69.40;100150.22;4923335;29;20295;-87
2022/01/02 09:58:43;;;;;;;9.83;7.43;;;;;;;14.46;69.47;99786.31;4922662;29;20181;-86
2022/01/02 10:01:17;;;;;;;11.23;7.13;;;;;;;15.65;68.50;99968.03;4937967;29;20166;-88
2022/01/02 10:03:46;;;;;;;9.23;7.07;;;;;;;14.50;69.13;99771.16;4938542;29;20260;-88
2022/01/02 10:06:13;;;;;;;9.10;6.97;;;;;;;16.62;68.72;100129.56;4937711;29;20177;-89
2022/01/02 10:08:38;;;;;;;12.30;9.47;;;;;;;16.65;67.59;100069.16;4921683;29;20181;-87
2022/01/02 10:11:27;;;;;;;9.83;7.03;;;;;;;15.02;67.99;99822.22;4922859;29;20583;-89
2022/01/02 10:14:01;;;;;;;8.77;5.53;;;;;;;16.90;67.94;100138.13;4901569;29;20190;-88
2022/01/02 10:16:31;;;;;;;12.77;8.93;;;;;;;17.11;67.81;100131.06;4918153;29;20213;-89
2022/01/02 10:19:21;;;;;;;11.77;8.00;;;;;;;16.81;67.04;100022.75;4917888;29;20248;-88
2022/01/02 10:21:58;;;;;;;11.47;8.07;;;;;;;16.99;67.73;100123.06;4917517;29;20193;-89
2022/01/02 10:24:40;;;;;;;8.40;6.40;;;;;;;14.51;67.83;99699.03;4902804;29;20205;-88
2022/01/02 10:27:21;;;;;;;10.93;7.90;;;;;;;16.76;68.38;100110.38;4918315;29;20186;-88
2022/01/02 10:29:58;;;;;;;9.60;7.30;;;;;;;16.70;68.77;100116.16;4901746;29;20193;-89
2022/01/02 10:32:35;;;;;;;9.43;6.67;;;;;;;16.96;67.74;100107.59;4918302;29;20162;-88
2022/01/02 10:35:29;;;;;;;9.73;6.73;;;;;;;17.19;67.50;100100.59;4918254;29;20738;-87
2022/01/02 10:37:57;;;;;;;8.57;6.60;;;;;;;17.52;66.45;100103.22;4898046;29;20190;-90
2022/01/02 10:40:44;;;;;;;8.80;7.03;;;;;;;17.88;64.40;100081.16;4897583;29;20311;-88
2022/01/02 10:43:32;;;;;;;13.70;8.77;;;;;;;18.10;63.73;100011.66;4906206;29;20269;-90
2022/01/02 10:46:03;;;;;;;7.63;6.30;;;;;;;18.00;63.59;100040.47;4923422;29;20795;-89
2022/01/02 10:48:57;;;;;;;7.87;6.27;;;;;;;17.59;64.59;100039.44;4922219;29;20197;-88
2022/01/02 10:51:24;;;;;;;7.60;5.60;;;;;;;16.99;65.42;99979.78;4886701;29;20201;-89
2022/01/02 10:53:57;;;;;;;7.17;5.60;;;;;;;16.00;65.32;99854.22;4903258;29;20194;-88
2022/01/02 10:56:25;;;;;;;6.67;4.90;;;;;;;17.27;65.49;100063.28;4888386;29;20210;-89
2022/01/02 10:58:50;;;;;;;9.23;6.17;;;;;;;15.30;64.99;99724.47;4903757;29;20254;-87
2022/01/02 11:01:17;;;;;;;7.73;5.43;;;;;;;17.71;64.58;100071.31;4908096;29;20198;-88
2022/01/02 11:03:47;;;;;;;7.40;5.67;;;;;;;15.16;64.93;99657.72;4914601;29;20258;-88
2022/01/02 11:06:32;;;;;;;8.13;5.57;;;;;;;15.53;64.43;99700.53;4908162;29;20827;-89
2022/01/02 11:08:59;;;;;;;6.70;5.47;;;;;;;18.09;63.59;100071.47;4904733;29;20198;-88
2022/01/02 11:11:25;;;;;;;6.00;4.93;;;;;;;17.31;64.97;100077.91;4904451;29;20214;-88
2022/01/02 11:13:52;;;;;;;6.40;5.13;;;;;;;16.36;65.06;99902.13;4888663;29;20175;-89
2022/01/02 11:16:19;;;;;;;8.30;6.00;;;;;;;14.67;64.13;99535.63;4904691;29;20297;-89
2022/01/02 11:18:46;;;;;;;8.23;5.83;;;;;;;14.07;63.33;99442.06;4904010;29;20182;-88
2022/01/02 11:21:14;;;;;;;13.27;7.83;;;;;;;18.05;63.15;100041.44;4903756;29;20195;-90
2022/01/02 11:24:10;;;;;;;9.00;6.10;;;;;;;16.53;62.34;99874.53;4903325;29;20813;-89
2022/01/02 11:27:29;;;;;;;6.53;5.20;;;;;;;17.48;62.95;100063.88;4903517;29;20215;-88
2022/01/02 11:29:57;;;;;;;5.43;4.20;;;;;;;17.02;62.75;99928.72;4906033;29;20194;-89
2022/01/02 11:32:27;;;;;;;6.97;5.40;;;;;;;17.39;63.17;99950.09;4891688;29;20194;-89
2022/01/02 11:34:55;;;;;;;6.60;4.80;;;;;;;14.82;62.17;99530.13;4888171;29;20218;-88
2022/01/02 11:37:23;;;;;;;6.93;4.50;;;;;;;15.65;62.97;99728.97;4904328;29;20199;-89
2022/01/02 11:39:54;;;;;;;5.67;4.20;;;;;;;14.15;62.87;99489.84;4906258;29;20198;-88